createdAt,value
2023-02-02T00:00:57.184Z,8.62
2023-02-02T00:06:03.950Z,8.49
2023-02-02T00:11:07.588Z,8.45
2023-02-02T00:16:36.410Z,8.72
2023-02-02T00:21:41.697Z,8.58
2023-02-02T00:26:46.403Z,8.50
2023-02-02T00:31:51.074Z,8.52
2023-02-02T00:36:56.124Z,8.23
2023-02-02T00:41:59.475Z,8.21
2023-02-02T00:47:03.470Z,8.13
2023-02-02T00:52:08.236Z,8.32
2023-02-02T00:57:14.145Z,8.35
2023-02-02T01:02:17.703Z,8.42
2023-02-02T01:07:22.765Z,8.50
2023-02-02T01:12:26.337Z,8.22
2023-02-02T01:17:29.842Z,8.06
2023-02-02T01:22:35.093Z,8.18
2023-02-02T01:27:38.530Z,8.18
2023-02-02T01:32:42.176Z,8.12
2023-02-02T01:37:47.020Z,7.66
2023-02-02T01:42:50.513Z,7.91
2023-02-02T01:47:58.619Z,8.01
2023-02-02T01:53:05.204Z,8.01
2023-02-02T01:58:12.551Z,7.19
2023-02-02T02:03:18.891Z,7.41
2023-02-02T02:08:28.913Z,8.21
2023-02-02T02:13:53.412Z,7.95
2023-02-02T02:19:10.459Z,7.77
2023-02-02T02:25:08.636Z,7.99
2023-02-02T02:30:42.445Z,7.57
2023-02-02T02:35:58.673Z,7.32
2023-02-02T02:41:07.575Z,7.57
2023-02-02T02:46:13.128Z,7.83
2023-02-02T02:51:42.192Z,7.82
2023-02-02T02:57:22.442Z,7.72
2023-02-02T03:02:34.793Z,7.66
2023-02-02T03:07:44.406Z,7.55
2023-02-02T03:12:49.780Z,7.76
2023-02-02T03:17:54.583Z,7.53
2023-02-02T03:22:59.245Z,7.73
2023-02-02T03:28:02.990Z,7.76
2023-02-02T03:33:07.006Z,7.76
2023-02-02T03:38:13.657Z,7.40
2023-02-02T03:43:21.582Z,7.03
2023-02-02T03:48:25.116Z,7.67
2023-02-02T03:53:29.924Z,7.10
2023-02-02T03:58:33.268Z,7.42
2023-02-02T04:03:36.675Z,7.75
2023-02-02T04:08:41.369Z,7.63
2023-02-02T04:13:45.038Z,7.34
2023-02-02T04:18:48.333Z,7.81
2023-02-02T04:23:53.250Z,7.89
2023-02-02T04:28:56.663Z,7.83
2023-02-02T04:34:01.146Z,7.76
2023-02-02T04:39:06.140Z,7.78
2023-02-02T04:44:15.178Z,7.36
2023-02-02T04:49:18.663Z,7.79
2023-02-02T04:54:23.315Z,5.81
2023-02-02T04:59:29.400Z,7.81
2023-02-02T05:04:32.881Z,7.95
2023-02-02T05:09:37.663Z,7.97
2023-02-02T05:14:41.137Z,7.90
2023-02-02T05:19:44.703Z,7.89
2023-02-02T05:24:49.546Z,7.81
2023-02-02T05:29:52.958Z,8.06
2023-02-02T05:34:56.457Z,8.03
2023-02-02T05:40:01.155Z,7.90
2023-02-02T05:45:05.361Z,7.99
2023-02-02T05:50:09.537Z,7.78
2023-02-02T05:55:14.233Z,7.28
2023-02-02T06:00:18.469Z,7.72
2023-02-02T06:05:21.907Z,7.81
2023-02-02T06:10:26.919Z,7.21
2023-02-02T06:15:31.503Z,7.83
2023-02-02T06:20:35.039Z,7.88
2023-02-02T06:25:39.959Z,7.97
2023-02-02T06:30:44.308Z,7.78
2023-02-02T06:35:47.988Z,7.59
2023-02-02T06:40:52.809Z,7.32
2023-02-02T06:45:58.481Z,7.36
2023-02-02T06:51:02.106Z,7.49
2023-02-02T06:56:08.880Z,7.95
2023-02-02T07:01:14.094Z,7.50
2023-02-02T07:06:20.563Z,7.64
2023-02-02T07:11:25.639Z,7.99
2023-02-02T07:16:29.296Z,7.80
2023-02-02T07:21:35.781Z,8.10
2023-02-02T07:26:40.907Z,7.81
2023-02-02T07:31:46.193Z,7.87
2023-02-02T07:36:49.806Z,7.91
2023-02-02T07:41:54.556Z,7.93
2023-02-02T07:47:08.159Z,7.98
2023-02-02T07:52:11.687Z,8.03
2023-02-02T07:57:18.399Z,7.50
2023-02-02T08:02:21.870Z,8.00
2023-02-02T08:07:25.630Z,7.93
2023-02-02T08:12:30.468Z,7.87
2023-02-02T08:17:33.900Z,8.09
2023-02-02T08:22:37.282Z,7.85
2023-02-02T08:27:42.163Z,7.78
2023-02-02T08:32:45.575Z,8.30
2023-02-02T08:37:49.513Z,8.25
2023-02-02T08:42:56.993Z,8.39
2023-02-02T08:48:11.309Z,8.20
2023-02-02T08:53:15.736Z,8.13
2023-02-02T08:58:20.627Z,8.15
2023-02-02T09:03:24.104Z,8.11
2023-02-02T09:08:27.433Z,8.00
2023-02-02T09:13:32.208Z,7.87
2023-02-02T09:18:36.008Z,7.85
2023-02-02T09:23:41.276Z,7.99
2023-02-02T09:28:47.913Z,7.74
2023-02-02T09:33:51.442Z,7.57
2023-02-02T09:38:54.992Z,7.75
2023-02-02T09:44:07.267Z,7.71
2023-02-02T09:49:14.559Z,7.93
2023-02-02T09:54:22.244Z,7.94
2023-02-02T09:59:31.957Z,7.72
2023-02-02T10:04:38.155Z,7.70
2023-02-02T10:09:47.966Z,7.77
2023-02-02T10:14:58.886Z,7.90
2023-02-02T10:20:06.691Z,7.46
2023-02-02T10:25:14.159Z,7.89
2023-02-02T10:30:20.899Z,7.73
2023-02-02T10:35:37.093Z,7.94
2023-02-02T10:40:49.735Z,7.85
2023-02-02T10:45:55.672Z,7.93
2023-02-02T10:51:02.534Z,7.89
2023-02-02T10:56:08.820Z,7.73
2023-02-02T11:01:18.005Z,8.09
2023-02-02T11:06:47.488Z,7.80
2023-02-02T11:11:56.036Z,7.94
2023-02-02T11:17:06.358Z,8.36
2023-02-02T11:22:25.327Z,7.92
2023-02-02T11:27:32.478Z,8.16
2023-02-02T11:32:37.838Z,8.31
2023-02-02T11:37:55.782Z,8.26
2023-02-02T11:43:02.315Z,8.17
2023-02-02T11:48:15.138Z,8.19
2023-02-02T11:53:24.919Z,7.86
2023-02-02T11:58:29.762Z,7.96
2023-02-02T12:03:37.986Z,8.25
2023-02-02T12:08:41.593Z,7.97
2023-02-02T12:13:56.249Z,7.87
2023-02-02T12:19:23.696Z,8.32
2023-02-02T12:24:32.975Z,8.26
2023-02-02T12:29:52.956Z,8.47
2023-02-02T12:35:15.727Z,7.50
2023-02-02T12:40:38.573Z,8.29
2023-02-02T12:45:58.848Z,7.77
2023-02-02T12:51:21.290Z,8.23
2023-02-02T12:56:33.144Z,7.97
2023-02-02T13:01:51.073Z,7.89
2023-02-02T13:07:28.461Z,8.33
2023-02-02T13:12:36.676Z,8.03
2023-02-02T13:17:46.717Z,7.85
2023-02-02T13:22:57.480Z,7.29
2023-02-02T13:28:02.467Z,8.04
2023-02-02T13:33:12.628Z,8.24
2023-02-02T13:38:20.876Z,7.99
2023-02-02T13:43:33.920Z,8.18
2023-02-02T13:48:45.778Z,7.80
2023-02-02T13:54:15.127Z,8.24
2023-02-02T13:59:46.786Z,8.27
2023-02-02T14:04:55.054Z,7.93
2023-02-02T14:10:00.681Z,8.10
2023-02-02T14:15:04.314Z,8.24
2023-02-02T14:20:47.428Z,8.15
2023-02-02T14:26:06.657Z,8.63
2023-02-02T14:31:29.060Z,8.74
2023-02-02T14:36:38.169Z,8.67
2023-02-02T14:42:22.424Z,8.66
2023-02-02T14:47:50.130Z,8.37
2023-02-02T14:53:16.003Z,8.71
2023-02-02T14:58:25.875Z,8.56
2023-02-02T15:03:51.399Z,8.61
2023-02-02T15:09:36.537Z,8.87
2023-02-02T15:14:46.544Z,8.48
2023-02-02T15:19:57.124Z,8.64
2023-02-02T15:25:07.884Z,8.85
2023-02-02T15:30:17.761Z,8.52
2023-02-02T15:35:25.178Z,8.81
2023-02-02T15:40:32.303Z,8.86
2023-02-02T15:45:44.444Z,8.71
2023-02-02T15:50:51.067Z,8.43
2023-02-02T15:55:55.986Z,8.58
2023-02-02T16:01:04.299Z,8.93
2023-02-02T16:06:08.995Z,8.63
2023-02-02T16:11:15.731Z,8.32
2023-02-02T16:16:26.891Z,8.86
2023-02-02T16:21:31.720Z,8.83
2023-02-02T16:26:36.649Z,8.54
2023-02-02T16:31:41.642Z,8.70
2023-02-02T16:36:45.259Z,8.62
2023-02-02T16:41:52.780Z,8.84
2023-02-02T16:46:58.010Z,8.81
2023-02-02T16:52:14.536Z,8.45
2023-02-02T16:57:20.635Z,8.70
2023-02-02T17:02:31.278Z,8.44
2023-02-02T17:07:36.838Z,8.49
2023-02-02T17:12:40.332Z,8.53
2023-02-02T17:17:47.731Z,8.59
2023-02-02T17:22:55.078Z,8.57
2023-02-02T17:28:00.357Z,8.55
2023-02-02T17:33:05.152Z,8.33
2023-02-02T17:38:08.557Z,8.28
2023-02-02T17:43:12.856Z,8.48
2023-02-02T17:48:17.852Z,8.41
2023-02-02T17:53:23.194Z,8.28
2023-02-02T17:58:26.547Z,8.58
2023-02-02T18:03:34.443Z,8.71
2023-02-02T18:08:37.973Z,8.59
2023-02-02T18:13:43.498Z,7.99
2023-02-02T18:18:48.372Z,8.55
2023-02-02T18:23:51.735Z,8.45
2023-02-02T18:28:55.452Z,8.23
2023-02-02T18:34:00.253Z,8.32
2023-02-02T18:39:03.878Z,8.18
2023-02-02T18:44:07.925Z,8.14
2023-02-02T18:49:13.451Z,8.63
2023-02-02T18:54:16.864Z,8.05
2023-02-02T18:59:20.196Z,8.41
2023-02-02T19:04:25.224Z,8.69
2023-02-02T19:09:29.576Z,8.77
2023-02-02T19:14:37.541Z,8.49
2023-02-02T19:19:42.964Z,8.78
2023-02-02T19:24:46.739Z,8.59
2023-02-02T19:29:52.604Z,8.63
2023-02-02T19:35:01.500Z,8.75
2023-02-02T19:40:21.058Z,8.77
2023-02-02T19:45:28.089Z,8.86
2023-02-02T19:50:38.921Z,8.82
2023-02-02T19:55:43.926Z,8.62
2023-02-02T20:00:48.208Z,8.62
2023-02-02T20:05:54.981Z,8.93
2023-02-02T20:16:37.639Z,9.10
2023-02-02T20:21:44.555Z,9.08
2023-02-02T20:26:48.289Z,9.10
2023-02-02T20:31:54.997Z,9.15
2023-02-02T20:37:03.562Z,9.07
2023-02-02T20:42:07.084Z,9.07
2023-02-02T20:47:10.675Z,9.18
2023-02-02T20:52:21.919Z,9.10
2023-02-02T20:57:25.859Z,9.21
2023-02-02T21:02:29.419Z,9.08
2023-02-02T21:07:34.393Z,8.94
2023-02-02T21:12:37.898Z,9.24
2023-02-02T21:17:41.306Z,9.08
2023-02-02T21:22:47.309Z,9.25
2023-02-02T21:27:50.651Z,8.75
2023-02-02T21:32:54.144Z,9.21
2023-02-02T21:38:01.659Z,9.25
2023-02-02T21:43:15.187Z,9.11
2023-02-02T21:48:28.629Z,9.19
2023-02-02T21:53:34.635Z,8.90
2023-02-02T21:58:38.797Z,9.25
2023-02-02T22:03:46.478Z,9.25
2023-02-02T22:08:52.143Z,9.17
2023-02-02T22:13:55.749Z,9.35
2023-02-02T22:18:59.406Z,9.34
2023-02-02T22:24:05.152Z,9.42
2023-02-02T22:29:16.064Z,9.40
2023-02-02T22:34:19.697Z,8.90
2023-02-02T22:39:24.451Z,9.22
2023-02-02T22:44:27.892Z,7.61
2023-02-02T22:49:31.553Z,8.31
2023-02-02T22:54:36.323Z,9.18
2023-02-02T22:59:39.761Z,9.15
2023-02-02T23:04:43.308Z,9.07
2023-02-02T23:09:48.055Z,8.84
2023-02-02T23:14:51.634Z,9.14
2023-02-02T23:19:54.979Z,9.13
2023-02-02T23:24:59.895Z,9.00
2023-02-02T23:30:03.275Z,9.21
2023-02-02T23:35:10.416Z,9.26
2023-02-02T23:40:15.698Z,9.27
2023-02-02T23:45:19.118Z,9.09
2023-02-02T23:50:22.680Z,9.32
2023-02-02T23:55:27.831Z,9.21
